Time;durP1;ratioP1;P1;durP2;ratioP2;P2;SDS_P1;SDS_P2;PMS_P1;PMS_P2;Temp;Humidity;BMP_temperature;BMP_pressure;BME280_temperature;BME280_humidity;BME280_pressure;Samples;Min_cycle;Max_cycle;Signal;HPM_P1;HPM_P2
2023/08/28 00:02:23;;;;;;;;;;;14.90;99.90;;;;;;7317528;19;9533;-79
2023/08/28 00:04:52;;;;;;;;;;;15.10;99.90;;;;;;7318760;19;9156;-79
2023/08/28 00:07:23;;;;;;;;;;;15.20;99.90;;;;;;7318053;19;9246;-79
2023/08/28 00:09:54;;;;;;;;;;;15.20;99.90;;;;;;7316376;19;9555;-79
2023/08/28 00:12:23;;;;;;;;;;;15.10;99.90;;;;;;7317337;19;9186;-79
2023/08/28 00:14:52;;;;;;;;;;;15.10;99.90;;;;;;7320690;19;9244;-79
2023/08/28 00:17:22;;;;;;;;;;;15.10;99.90;;;;;;7317923;19;9108;-79
2023/08/28 00:19:51;;;;;;;;;;;15.20;99.90;;;;;;7318680;19;9260;-79
2023/08/28 00:22:22;;;;;;;;;;;15.10;99.90;;;;;;7318879;19;9172;-79
2023/08/28 00:24:51;;;;;;;;;;;15.10;99.90;;;;;;7317996;19;9346;-79
2023/08/28 00:27:20;;;;;;;;;;;15.10;99.90;;;;;;7319576;19;9283;-79
2023/08/28 00:29:49;;;;;;;;;;;15.10;99.90;;;;;;7315536;19;9348;-79
2023/08/28 00:32:18;;;;;;;;;;;15.10;99.90;;;;;;7318013;19;9236;-79
2023/08/28 00:34:47;;;;;;;;;;;15.00;99.90;;;;;;7316832;19;9818;-79
2023/08/28 00:37:16;;;;;;;;;;;15.00;99.90;;;;;;7314007;19;9492;-79
2023/08/28 00:39:48;;;;;;;;;;;15.10;99.90;;;;;;7315713;19;9479;-79
2023/08/28 00:42:17;;;;;;;;;;;15.00;99.90;;;;;;7318398;19;9225;-79
2023/08/28 00:44:45;;;;;;;;;;;15.00;99.90;;;;;;7316433;19;9623;-79
2023/08/28 00:47:14;;;;;;;;;;;14.90;99.90;;;;;;7315994;19;9298;-79
2023/08/28 00:49:44;;;;;;;;;;;14.80;99.90;;;;;;7317326;19;9632;-79
2023/08/28 00:52:15;;;;;;;;;;;14.80;99.90;;;;;;7317962;19;9343;-79
2023/08/28 00:54:48;;;;;;;;;;;14.90;99.90;;;;;;7317200;19;9296;-79
2023/08/28 00:57:19;;;;;;;;;;;14.90;99.90;;;;;;7327103;19;9349;-79
2023/08/28 00:59:48;;;;;;;;;;;14.80;99.90;;;;;;7323547;19;9265;-79
2023/08/28 01:02:17;;;;;;;;;;;14.90;99.90;;;;;;7326959;19;9170;-79
2023/08/28 01:04:46;;;;;;;;;;;14.80;99.90;;;;;;7323872;19;9271;-80
2023/08/28 01:07:25;;;;;;;;;;;14.70;99.90;;;;;;7325686;19;9351;-80
2023/08/28 01:10:08;;;;;;;;;;;14.70;99.90;;;;;;7324758;19;9465;-79
2023/08/28 01:12:49;;;;;;;;;;;14.60;99.90;;;;;;7325754;19;9169;-79
2023/08/28 01:15:22;;;;;;;;;;;14.50;99.90;;;;;;7323759;19;9398;-79
2023/08/28 01:17:55;;;;;;;;;;;14.40;99.90;;;;;;7325602;19;9251;-79
2023/08/28 01:20:26;;;;;;;;;;;14.30;99.90;;;;;;7325557;19;9473;-79
2023/08/28 01:23:10;;;;;;;;;;;14.20;99.90;;;;;;7324101;19;9304;-79
2023/08/28 01:25:41;;;;;;;;;;;14.10;99.90;;;;;;7324024;19;9284;-79
2023/08/28 01:28:11;;;;;;;;;;;14.10;99.90;;;;;;7324303;19;9274;-80
2023/08/28 01:30:41;;;;;;;;;;;14.10;99.90;;;;;;7325238;19;9176;-79
2023/08/28 01:33:12;;;;;;;;;;;13.90;99.90;;;;;;7323636;19;9232;-80
2023/08/28 01:35:41;;;;;;;;;;;13.80;99.90;;;;;;7322010;19;10342;-80
2023/08/28 01:38:22;;;;;;;;;;;13.70;99.90;;;;;;7320968;19;9253;-79
2023/08/28 01:40:59;;;;;;;;;;;13.70;99.90;;;;;;7322441;19;9221;-80
2023/08/28 01:43:36;;;;;;;;;;;13.70;99.90;;;;;;7323848;19;11332;-79
2023/08/28 01:46:06;;;;;;;;;;;13.50;99.90;;;;;;7322503;19;10972;-79
2023/08/28 01:48:36;;;;;;;;;;;13.40;99.90;;;;;;7322868;19;9120;-79
2023/08/28 01:51:05;;;;;;;;;;;13.50;99.90;;;;;;7323364;19;8996;-80
2023/08/28 01:53:34;;;;;;;;;;;13.40;99.90;;;;;;7322438;19;10638;-80
2023/08/28 01:56:27;;;;;;;;;;;13.30;99.90;;;;;;7320618;19;9147;-79
2023/08/28 01:58:58;;;;;;;;;;;13.20;99.90;;;;;;7322720;19;9561;-80
2023/08/28 02:01:28;;;;;;;;;;;13.20;99.90;;;;;;7322614;19;9441;-79
2023/08/28 02:03:57;;;;;;;;;;;13.10;99.90;;;;;;7321292;19;9785;-79
2023/08/28 02:06:26;;;;;;;;;;;13.10;99.90;;;;;;7321123;19;9193;-80
2023/08/28 02:08:55;;;;;;;;;;;13.20;99.90;;;;;;7323649;19;9364;-80
2023/08/28 02:11:27;;;;;;;;;;;13.20;99.90;;;;;;7324328;19;10221;-79
2023/08/28 02:13:57;;;;;;;;;;;13.30;99.90;;;;;;7323080;19;8948;-79
2023/08/28 02:16:25;;;;;;;;;;;13.40;99.90;;;;;;7322708;19;9442;-79
2023/08/28 02:18:54;;;;;;;;;;;13.40;99.90;;;;;;7321561;19;9288;-79
2023/08/28 02:21:23;;;;;;;;;;;13.50;99.90;;;;;;7321612;19;10040;-79
2023/08/28 02:23:52;;;;;;;;;;;13.50;99.90;;;;;;7322180;19;9244;-79
2023/08/28 02:26:21;;;;;;;;;;;13.40;99.90;;;;;;7322315;19;9189;-79
2023/08/28 02:28:53;;;;;;;;;;;13.40;99.90;;;;;;7321254;19;9570;-79
2023/08/28 02:31:22;;;;;;;;;;;13.30;99.90;;;;;;7320456;19;9355;-79
2023/08/28 02:33:51;;;;;;;;;;;13.30;99.90;;;;;;7319537;19;9488;-79
2023/08/28 02:36:20;;;;;;;;;;;13.20;99.90;;;;;;7321968;19;9569;-79
2023/08/28 02:38:49;;;;;;;;;;;13.10;99.90;;;;;;7319590;19;9189;-79
2023/08/28 02:41:18;;;;;;;;;;;13.00;99.90;;;;;;7321443;19;9284;-79
2023/08/28 02:43:47;;;;;;;;;;;13.00;99.90;;;;;;7320387;19;9448;-80
2023/08/28 02:46:18;;;;;;;;;;;13.00;99.90;;;;;;7322320;19;9221;-79
2023/08/28 02:48:47;;;;;;;;;;;13.00;99.90;;;;;;7320341;19;9623;-79
2023/08/28 02:51:16;;;;;;;;;;;13.00;99.90;;;;;;7316479;19;9482;-79
2023/08/28 02:53:45;;;;;;;;;;;13.10;99.90;;;;;;7320324;19;9430;-79
2023/08/28 02:56:28;;;;;;;;;;;13.20;99.90;;;;;;7319947;19;9474;-79
2023/08/28 02:58:57;;;;;;;;;;;13.20;99.90;;;;;;7320307;19;9169;-79
2023/08/28 03:01:29;;;;;;;;;;;13.20;99.90;;;;;;7320645;19;9554;-79
2023/08/28 03:03:58;;;;;;;;;;;13.20;99.90;;;;;;7318751;19;10016;-79
2023/08/28 03:06:27;;;;;;;;;;;13.40;99.90;;;;;;7322446;19;9482;-79
2023/08/28 03:08:56;;;;;;;;;;;13.30;99.90;;;;;;7324711;19;9115;-79
2023/08/28 03:11:25;;;;;;;;;;;13.30;99.90;;;;;;7322177;19;9695;-79
2023/08/28 03:13:54;;;;;;;;;;;13.20;99.90;;;;;;7322120;19;8944;-79
2023/08/28 03:16:24;;;;;;;;;;;13.20;99.90;;;;;;7320475;19;9600;-79
2023/08/28 03:18:55;;;;;;;;;;;13.20;99.90;;;;;;7317992;19;9482;-79
2023/08/28 03:21:24;;;;;;;;;;;13.20;99.90;;;;;;7317883;19;9260;-79
2023/08/28 03:23:54;;;;;;;;;;;13.20;99.90;;;;;;7317478;19;9266;-79
2023/08/28 03:26:25;;;;;;;;;;;13.20;99.90;;;;;;7318636;19;9321;-79
2023/08/28 03:28:54;;;;;;;;;;;13.30;99.90;;;;;;7320675;19;9513;-79
2023/08/28 03:31:24;;;;;;;;;;;13.20;99.90;;;;;;7319090;19;9236;-79
2023/08/28 03:33:56;;;;;;;;;;;13.20;99.90;;;;;;7318709;19;9208;-79
2023/08/28 03:36:25;;;;;;;;;;;13.10;99.90;;;;;;7318607;19;9225;-79
2023/08/28 03:38:54;;;;;;;;;;;13.10;99.90;;;;;;7319404;19;9357;-79
2023/08/28 03:41:23;;;;;;;;;;;13.00;99.90;;;;;;7316687;19;9332;-79
2023/08/28 03:43:52;;;;;;;;;;;13.10;99.90;;;;;;7319544;19;9269;-79
2023/08/28 03:46:21;;;;;;;;;;;13.10;99.90;;;;;;7318554;19;9306;-79
2023/08/28 03:48:50;;;;;;;;;;;13.00;99.90;;;;;;7315083;19;9257;-80
2023/08/28 03:51:21;;;;;;;;;;;13.00;99.90;;;;;;7317393;19;9221;-79
2023/08/28 03:53:50;;;;;;;;;;;13.00;99.90;;;;;;7317948;19;9369;-79
2023/08/28 03:56:19;;;;;;;;;;;13.10;99.90;;;;;;7316261;19;9504;-80
2023/08/28 03:58:48;;;;;;;;;;;13.20;99.90;;;;;;7316742;19;9233;-79
2023/08/28 04:01:17;;;;;;;;;;;13.20;99.90;;;;;;7313661;19;9259;-79
2023/08/28 04:03:46;;;;;;;;;;;13.30;99.90;;;;;;7313524;19;10347;-80
2023/08/28 04:06:15;;;;;;;;;;;13.30;99.90;;;;;;7317053;19;9293;-79
2023/08/28 04:08:47;;;;;;;;;;;13.20;99.90;;;;;;7314479;19;9244;-80
2023/08/28 04:11:16;;;;;;;;;;;13.20;99.90;;;;;;7316492;19;9587;-79
2023/08/28 04:13:46;;;;;;;;;;;13.30;99.90;;;;;;7316021;19;8945;-79
2023/08/28 04:16:18;;;;;;;;;;;13.40;99.90;;;;;;7316769;19;9166;-79
2023/08/28 04:18:48;;;;;;;;;;;13.50;99.90;;;;;;7312517;19;9277;-80
2023/08/28 04:21:17;;;;;;;;;;;13.60;99.90;;;;;;7317949;19;9281;-79
2023/08/28 04:23:48;;;;;;;;;;;13.50;99.90;;;;;;7316947;19;9280;-80
2023/08/28 04:26:37;;;;;;;;;;;13.40;99.90;;;;;;7316148;19;9604;-79
2023/08/28 04:29:26;;;;;;;;;;;13.30;99.90;;;;;;7313209;19;9514;-79
2023/08/28 04:32:15;;;;;;;;;;;13.30;99.90;;;;;;7314314;19;9238;-80
2023/08/28 04:34:45;;;;;;;;;;;13.30;99.90;;;;;;7312998;19;8944;-80
2023/08/28 04:37:14;;;;;;;;;;;13.30;99.90;;;;;;7314032;19;9600;-79
2023/08/28 04:39:45;;;;;;;;;;;13.30;99.90;;;;;;7315302;19;8940;-79
2023/08/28 04:42:16;;;;;;;;;;;13.20;99.90;;;;;;7312820;19;11165;-79
2023/08/28 04:45:06;;;;;;;;;;;13.30;99.90;;;;;;7303910;19;9642;-79
2023/08/28 04:47:35;;;;;;;;;;;13.10;99.90;;;;;;7172117;19;2805066;-80
2023/08/28 04:50:04;;;;;;;;;;;12.90;99.90;;;;;;7315954;19;10397;-79
2023/08/28 04:52:33;;;;;;;;;;;12.80;99.90;;;;;;7318404;19;11221;-79
2023/08/28 04:55:05;;;;;;;;;;;12.70;99.90;;;;;;7316574;19;10461;-80
2023/08/28 04:57:35;;;;;;;;;;;12.70;99.90;;;;;;7314847;19;10597;-80
2023/08/28 05:00:04;;;;;;;;;;;12.70;99.90;;;;;;7307439;19;9462;-79
2023/08/28 05:02:33;;;;;;;;;;;12.70;99.90;;;;;;7318738;19;9777;-79
2023/08/28 05:05:03;;;;;;;;;;;12.70;99.90;;;;;;7314604;19;9379;-79
2023/08/28 05:07:31;;;;;;;;;;;12.70;99.90;;;;;;7318857;19;9235;-79
2023/08/28 05:10:00;;;;;;;;;;;12.70;99.90;;;;;;7309553;19;9304;-79
2023/08/28 05:12:32;;;;;;;;;;;12.70;99.90;;;;;;7304357;19;9341;-80
2023/08/28 05:15:01;;;;;;;;;;;12.70;99.90;;;;;;7313124;19;9257;-79
2023/08/28 05:17:30;;;;;;;;;;;12.70;99.90;;;;;;7309129;19;9510;-80
2023/08/28 05:19:59;;;;;;;;;;;12.70;99.90;;;;;;7302134;19;10872;-79
2023/08/28 05:22:28;;;;;;;;;;;12.60;99.90;;;;;;7304331;19;9519;-79
2023/08/28 05:24:57;;;;;;;;;;;12.70;99.90;;;;;;7318187;19;9172;-79
2023/08/28 05:27:26;;;;;;;;;;;12.70;99.90;;;;;;7315508;19;9264;-79
2023/08/28 05:29:58;;;;;;;;;;;12.70;99.90;;;;;;7304284;19;9311;-80
2023/08/28 05:32:27;;;;;;;;;;;12.60;99.90;;;;;;7316243;19;9243;-80
2023/08/28 05:34:58;;;;;;;;;;;12.70;99.90;;;;;;7318016;19;9281;-80
2023/08/28 05:37:27;;;;;;;;;;;12.70;99.90;;;;;;7309379;19;10575;-79
2023/08/28 05:39:56;;;;;;;;;;;12.70;99.90;;;;;;7310807;19;9683;-79
2023/08/28 05:42:25;;;;;;;;;;;12.80;99.90;;;;;;7309331;19;9273;-79
2023/08/28 05:44:54;;;;;;;;;;;12.80;99.90;;;;;;7304911;19;9537;-80
2023/08/28 05:47:26;;;;;;;;;;;12.90;99.90;;;;;;7312483;19;9317;-79
2023/08/28 05:49:55;;;;;;;;;;;12.90;99.90;;;;;;7316622;19;9123;-79
2023/08/28 05:52:23;;;;;;;;;;;13.10;99.90;;;;;;7324595;19;9620;-77
2023/08/28 05:54:53;;;;;;;;;;;13.20;99.90;;;;;;7324283;19;9337;-79
2023/08/28 05:57:23;;;;;;;;;;;13.50;99.90;;;;;;7321152;19;12233;-81
2023/08/28 05:59:52;;;;;;;;;;;13.80;99.90;;;;;;7322378;19;9587;-81
2023/08/28 06:02:21;;;;;;;;;;;13.80;99.90;;;;;;7323239;19;9915;-88
2023/08/28 06:04:53;;;;;;;;;;;13.80;99.90;;;;;;7322102;19;9510;-86
2023/08/28 06:07:22;;;;;;;;;;;13.70;99.90;;;;;;7315825;19;9367;-85
2023/08/28 06:09:51;;;;;;;;;;;13.80;99.90;;;;;;7284546;19;10602;-86
2023/08/28 06:12:20;;;;;;;;;;;13.80;99.90;;;;;;7317243;19;9315;-81
2023/08/28 06:14:49;;;;;;;;;;;13.90;99.90;;;;;;7322014;19;9193;-81
2023/08/28 06:17:18;;;;;;;;;;;14.10;99.90;;;;;;7320565;19;10414;-81
2023/08/28 06:19:49;;;;;;;;;;;14.40;99.90;;;;;;7321780;19;10261;-82
2023/08/28 06:22:21;;;;;;;;;;;14.30;99.90;;;;;;7322883;19;9597;-86
2023/08/28 06:24:52;;;;;;;;;;;14.30;99.90;;;;;;7322656;19;9249;-84
2023/08/28 06:27:22;;;;;;;;;;;14.30;99.90;;;;;;7323642;19;9481;-86
2023/08/28 06:29:51;;;;;;;;;;;14.30;99.90;;;;;;7323640;19;9465;-85
2023/08/28 06:32:20;;;;;;;;;;;14.30;99.90;;;;;;7323442;19;10391;-86
2023/08/28 06:34:49;;;;;;;;;;;14.30;99.90;;;;;;7324381;19;9210;-85
2023/08/28 06:37:20;;;;;;;;;;;14.40;99.90;;;;;;7319552;19;9167;-86
2023/08/28 06:39:49;;;;;;;;;;;14.40;99.90;;;;;;7321165;19;9123;-85
2023/08/28 06:42:18;;;;;;;;;;;14.50;99.90;;;;;;7322254;19;9531;-86
2023/08/28 06:44:47;;;;;;;;;;;14.60;99.90;;;;;;7323067;19;9249;-85
2023/08/28 06:47:19;;;;;;;;;;;14.80;99.90;;;;;;7319531;19;9505;-86
2023/08/28 06:49:48;;;;;;;;;;;14.70;99.90;;;;;;7320919;19;9291;-85
2023/08/28 06:52:17;;;;;;;;;;;14.70;99.90;;;;;;7321792;19;9126;-86
2023/08/28 06:54:49;;;;;;;;;;;14.80;99.90;;;;;;7319414;19;9293;-84
2023/08/28 06:57:18;;;;;;;;;;;15.30;99.90;;;;;;7321818;19;9361;-85
2023/08/28 06:59:48;;;;;;;;;;;15.70;99.90;;;;;;7323286;19;9289;-85
2023/08/28 07:02:17;;;;;;;;;;;15.80;99.90;;;;;;7320061;19;9672;-84
2023/08/28 07:04:46;;;;;;;;;;;15.80;99.90;;;;;;7320496;19;9472;-84
2023/08/28 07:07:19;;;;;;;;;;;16.10;99.90;;;;;;7320860;19;9240;-84
2023/08/28 07:09:50;;;;;;;;;;;16.00;99.90;;;;;;7323427;19;9588;-84
2023/08/28 07:12:19;;;;;;;;;;;16.00;99.90;;;;;;7319495;19;9501;-85
2023/08/28 07:15:28;;;;;;;;;;;16.10;99.90;;;;;;7321819;19;9535;-84
2023/08/28 07:17:57;;;;;;;;;;;16.20;99.90;;;;;;7322633;19;9475;-85
2023/08/28 07:20:26;;;;;;;;;;;16.50;99.90;;;;;;7318342;19;9244;-84
2023/08/28 07:22:56;;;;;;;;;;;16.60;99.90;;;;;;7321578;19;9175;-84
2023/08/28 07:25:28;;;;;;;;;;;16.60;99.90;;;;;;7322305;19;9433;-83
2023/08/28 07:27:57;;;;;;;;;;;16.70;99.90;;;;;;7321746;19;9482;-84
2023/08/28 07:30:26;;;;;;;;;;;16.70;99.90;;;;;;7344418;19;9147;-85
2023/08/28 07:32:55;;;;;;;;;;;17.00;99.90;;;;;;7336002;19;9180;-84
2023/08/28 07:35:26;;;;;;;;;;;17.50;99.90;;;;;;7321782;19;9264;-85
2023/08/28 07:37:55;;;;;;;;;;;17.90;99.90;;;;;;7320357;19;9276;-86
2023/08/28 07:40:26;;;;;;;;;;;18.20;99.90;;;;;;7320891;19;9127;-84
2023/08/28 07:43:16;;;;;;;;;;;18.60;99.90;;;;;;7317019;19;9410;-84
2023/08/28 07:45:44;;;;;;;;;;;18.80;99.90;;;;;;7319568;19;9244;-86
2023/08/28 07:48:13;;;;;;;;;;;19.00;99.90;;;;;;7317770;19;9257;-84
2023/08/28 07:50:45;;;;;;;;;;;19.40;99.90;;;;;;7319965;19;9330;-84
2023/08/28 07:53:14;;;;;;;;;;;19.80;99.90;;;;;;7322651;19;9280;-86
2023/08/28 07:55:46;;;;;;;;;;;20.00;99.90;;;;;;7316845;19;10567;-84
2023/08/28 07:58:15;;;;;;;;;;;20.00;99.90;;;;;;7320998;19;9224;-84
2023/08/28 08:00:44;;;;;;;;;;;20.00;99.90;;;;;;7320189;19;9317;-85
2023/08/28 08:03:13;;;;;;;;;;;20.00;99.90;;;;;;7318292;19;10182;-85
2023/08/28 08:05:42;;;;;;;;;;;20.20;99.90;;;;;;7320318;19;9283;-84
2023/08/28 08:08:11;;;;;;;;;;;20.30;99.90;;;;;;7318841;19;9257;-84
2023/08/28 08:10:40;;;;;;;;;;;20.20;99.90;;;;;;7319953;19;9461;-85
2023/08/28 08:13:12;;;;;;;;;;;20.40;99.90;;;;;;7318629;19;9240;-84
2023/08/28 08:15:41;;;;;;;;;;;20.60;99.90;;;;;;7318157;19;9479;-86
2023/08/28 08:18:10;;;;;;;;;;;20.50;99.90;;;;;;7318638;19;9449;-84
2023/08/28 08:20:39;;;;;;;;;;;20.70;99.90;;;;;;7320013;19;9473;-82
2023/08/28 08:23:09;;;;;;;;;;;20.70;99.90;;;;;;7318383;19;9591;-83
2023/08/28 08:25:39;;;;;;;;;;;20.40;99.90;;;;;;7317863;19;10059;-83
2023/08/28 08:28:08;;;;;;;;;;;20.30;99.90;;;;;;7318863;19;9118;-83
2023/08/28 08:30:39;;;;;;;;;;;20.40;99.90;;;;;;7321064;19;10732;-84
2023/08/28 08:33:08;;;;;;;;;;;20.20;99.90;;;;;;7318171;19;9065;-84
2023/08/28 08:35:57;;;;;;;;;;;20.30;99.90;;;;;;7318274;19;9555;-84
2023/08/28 08:38:26;;;;;;;;;;;20.20;99.90;;;;;;7319213;19;10667;-84
2023/08/28 08:40:58;;;;;;;;;;;20.40;99.90;;;;;;7317606;19;9185;-85
2023/08/28 08:43:28;;;;;;;;;;;20.30;99.90;;;;;;7318356;19;9512;-84
2023/08/28 08:46:09;;;;;;;;;;;20.30;99.90;;;;;;7316868;19;9293;-84
2023/08/28 08:48:39;;;;;;;;;;;20.30;99.90;;;;;;7319033;19;9284;-84
2023/08/28 08:51:09;;;;;;;;;;;20.20;99.90;;;;;;7319797;19;9356;-83
2023/08/28 08:53:46;;;;;;;;;;;20.10;99.90;;;;;;7319702;19;9252;-84
2023/08/28 08:56:37;;;;;;;;;;;20.30;99.90;;;;;;7315262;19;9501;-83
2023/08/28 08:59:04;;;;;;;;;;;20.10;99.90;;;;;;7317282;19;9533;-86
2023/08/28 09:01:36;;;;;;;;;;;20.00;99.90;;;;;;7315058;19;9249;-84
2023/08/28 09:04:07;;;;;;;;;;;19.80;99.90;;;;;;7315896;19;9198;-84
2023/08/28 09:06:38;;;;;;;;;;;19.70;99.90;;;;;;7318723;19;9513;-83
2023/08/28 09:09:08;;;;;;;;;;;19.70;99.90;;;;;;7315803;19;9217;-84
2023/08/28 09:11:40;;;;;;;;;;;19.80;99.90;;;;;;7316434;19;10283;-84
2023/08/28 09:14:09;;;;;;;;;;;19.80;99.90;;;;;;7317315;19;11353;-84
2023/08/28 09:16:41;;;;;;;;;;;20.10;99.90;;;;;;7319079;19;9252;-85
2023/08/28 09:19:10;;;;;;;;;;;19.30;99.90;;;;;;7324994;19;9257;-83
2023/08/28 09:21:45;;;;;;;;;;;19.80;99.90;;;;;;7323759;19;8945;-83
2023/08/28 09:24:14;;;;;;;;;;;20.00;99.90;;;;;;7323073;19;9163;-83
2023/08/28 09:26:54;;;;;;;;;;;20.20;99.90;;;;;;7322317;19;9296;-83
2023/08/28 09:29:25;;;;;;;;;;;19.90;99.90;;;;;;7324204;19;9269;-84
2023/08/28 09:32:04;;;;;;;;;;;20.00;99.90;;;;;;7325645;19;9402;-83
2023/08/28 09:34:53;;;;;;;;;;;19.80;99.90;;;;;;7324422;19;9066;-83
2023/08/28 09:37:22;;;;;;;;;;;20.00;99.90;;;;;;7326408;19;9177;-84
2023/08/28 09:39:58;;;;;;;;;;;20.40;99.90;;;;;;7327440;19;9224;-83
2023/08/28 09:42:28;;;;;;;;;;;20.70;99.90;;;;;;7338125;19;9459;-83
2023/08/28 09:44:58;;;;;;;;;;;21.10;99.90;;;;;;7324977;19;10038;-83
2023/08/28 09:47:31;;;;;;;;;;;20.90;95.50;;;;;;7322896;19;9293;-84
2023/08/28 09:50:00;;;;;;;;;;;21.20;99.70;;;;;;7323470;19;9503;-83
2023/08/28 09:52:29;;;;;;;;;;;21.50;99.50;;;;;;7325100;19;10844;-82
2023/08/28 09:55:07;;;;;;;;;;;21.50;98.00;;;;;;7323299;19;9047;-84
2023/08/28 09:57:36;;;;;;;;;;;21.50;99.40;;;;;;7325281;19;9246;-85
2023/08/28 10:00:06;;;;;;;;;;;21.00;96.80;;;;;;7323983;19;10048;-83
2023/08/28 10:02:39;;;;;;;;;;;20.90;99.10;;;;;;7322207;19;10077;-84
2023/08/28 10:05:10;;;;;;;;;;;20.60;94.10;;;;;;7322247;19;9237;-84
2023/08/28 10:07:41;;;;;;;;;;;20.30;95.70;;;;;;7320735;19;9473;-84
2023/08/28 10:10:18;;;;;;;;;;;19.90;94.70;;;;;;7316905;19;9419;-76
2023/08/28 10:12:48;;;;;;;;;;;19.40;96.00;;;;;;7322619;19;10455;-77
2023/08/28 10:15:20;;;;;;;;;;;19.30;98.90;;;;;;7318224;19;9554;-74
2023/08/28 10:17:53;;;;;;;;;;;19.20;99.90;;;;;;7323881;19;9244;-75
2023/08/28 10:20:26;;;;;;;;;;;19.00;99.90;;;;;;7321492;19;9138;-75
2023/08/28 10:22:56;;;;;;;;;;;18.90;99.90;;;;;;7321583;19;9158;-74
2023/08/28 10:25:29;;;;;;;;;;;18.70;99.90;;;;;;7322133;19;9576;-75
2023/08/28 10:28:03;;;;;;;;;;;18.50;99.90;;;;;;7322500;19;9232;-76
2023/08/28 10:30:36;;;;;;;;;;;18.40;99.90;;;;;;7320157;19;9339;-79
2023/08/28 10:33:29;;;;;;;;;;;18.30;99.90;;;;;;7320023;19;9289;-80
2023/08/28 10:36:01;;;;;;;;;;;18.20;99.90;;;;;;7321003;19;9465;-78
2023/08/28 10:38:32;;;;;;;;;;;18.10;99.90;;;;;;7319611;19;9236;-77
2023/08/28 10:41:02;;;;;;;;;;;18.00;99.90;;;;;;7320854;19;9422;-78
2023/08/28 10:43:33;;;;;;;;;;;18.10;99.90;;;;;;7320938;19;9415;-81
2023/08/28 10:46:05;;;;;;;;;;;18.50;99.90;;;;;;7323199;19;9252;-82
2023/08/28 10:48:41;;;;;;;;;;;18.90;99.90;;;;;;7321480;19;9374;-81
2023/08/28 10:51:13;;;;;;;;;;;19.20;99.90;;;;;;7322779;19;9213;-81
2023/08/28 10:53:43;;;;;;;;;;;19.40;99.90;;;;;;7320902;19;9261;-81
2023/08/28 10:56:15;;;;;;;;;;;19.40;99.90;;;;;;7321393;19;9251;-82
2023/08/28 10:58:45;;;;;;;;;;;19.20;99.90;;;;;;7320525;19;9000;-81
2023/08/28 11:01:15;;;;;;;;;;;19.00;99.90;;;;;;7321897;19;9272;-81
2023/08/28 11:03:59;;;;;;;;;;;18.80;99.90;;;;;;7319749;19;9237;-81
2023/08/28 11:06:42;;;;;;;;;;;18.60;99.90;;;;;;7321897;19;8995;-81
2023/08/28 11:09:35;;;;;;;;;;;18.50;99.90;;;;;;7322248;19;9401;-81
2023/08/28 11:12:32;;;;;;;;;;;18.60;99.90;;;;;;7321058;19;9328;-81
2023/08/28 11:15:05;;;;;;;;;;;18.60;99.90;;;;;;7319538;19;9127;-81
2023/08/28 11:17:35;;;;;;;;;;;18.70;99.90;;;;;;7321178;19;9491;-82
2023/08/28 11:20:11;;;;;;;;;;;18.80;99.90;;;;;;7320566;19;9322;-81
2023/08/28 11:22:43;;;;;;;;;;;19.00;99.90;;;;;;7319521;19;9189;-81
2023/08/28 11:25:14;;;;;;;;;;;19.10;99.90;;;;;;7321947;19;9224;-81
2023/08/28 11:27:47;;;;;;;;;;;19.20;99.90;;;;;;7313076;19;10257;-78
2023/08/28 11:30:19;;;;;;;;;;;19.30;99.90;;;;;;7319556;19;9271;-78
2023/08/28 11:32:51;;;;;;;;;;;19.40;99.90;;;;;;7317780;19;9519;-78
2023/08/28 11:35:26;;;;;;;;;;;19.50;99.90;;;;;;7315780;19;9852;-78
2023/08/28 11:37:57;;;;;;;;;;;19.40;99.90;;;;;;7319641;19;9257;-78
2023/08/28 11:40:27;;;;;;;;;;;19.40;99.90;;;;;;7318181;19;9257;-78
2023/08/28 11:43:06;;;;;;;;;;;19.40;99.90;;;;;;7316753;19;9225;-79
2023/08/28 11:45:36;;;;;;;;;;;19.40;99.90;;;;;;7318342;19;11329;-78
2023/08/28 11:48:07;;;;;;;;;;;19.40;99.90;;;;;;7313555;19;9585;-79
2023/08/28 11:50:38;;;;;;;;;;;19.40;99.90;;;;;;7317020;19;10545;-78
2023/08/28 11:53:07;;;;;;;;;;;19.40;99.90;;;;;;7317003;19;9251;-78
2023/08/28 11:55:38;;;;;;;;;;;19.40;99.90;;;;;;7318823;19;9181;-79
2023/08/28 11:58:08;;;;;;;;;;;19.40;99.90;;;;;;7319590;19;9234;-79
2023/08/28 12:00:37;;;;;;;;;;;19.40;99.90;;;;;;7320378;19;9284;-80
2023/08/28 12:03:07;;;;;;;;;;;19.40;99.90;;;;;;7317995;19;9121;-80
2023/08/28 12:05:39;;;;;;;;;;;19.30;99.90;;;;;;7320604;19;9371;-80
2023/08/28 12:08:09;;;;;;;;;;;19.20;99.90;;;;;;7314955;19;11029;-80
2023/08/28 12:10:39;;;;;;;;;;;19.30;99.90;;;;;;7315312;19;9252;-79
2023/08/28 12:13:08;;;;;;;;;;;19.20;99.90;;;;;;7316490;19;9413;-79
2023/08/28 12:15:37;;;;;;;;;;;19.20;99.90;;;;;;7315814;19;9235;-79
2023/08/28 12:18:07;;;;;;;;;;;19.20;99.90;;;;;;7318103;19;9544;-79
2023/08/28 12:20:39;;;;;;;;;;;19.20;99.90;;;;;;7319694;19;9763;-79
2023/08/28 12:23:08;;;;;;;;;;;19.30;99.90;;;;;;7318600;19;9229;-79
2023/08/28 12:25:40;;;;;;;;;;;19.50;99.90;;;;;;7315508;19;9478;-79
2023/08/28 12:28:11;;;;;;;;;;;19.80;99.90;;;;;;7315490;19;9473;-79
2023/08/28 12:30:41;;;;;;;;;;;19.90;97.40;;;;;;7316528;19;9249;-79
2023/08/28 12:33:11;;;;;;;;;;;20.10;95.70;;;;;;7317066;19;10222;-79
2023/08/28 12:35:44;;;;;;;;;;;20.40;98.00;;;;;;7315806;19;9371;-79
2023/08/28 12:38:13;;;;;;;;;;;20.40;95.20;;;;;;7316977;19;9418;-79
2023/08/28 12:40:44;;;;;;;;;;;20.60;96.10;;;;;;7317128;19;9534;-79
2023/08/28 12:43:13;;;;;;;;;;;20.60;94.70;;;;;;7317106;19;9252;-79
2023/08/28 12:45:43;;;;;;;;;;;20.70;94.20;;;;;;7315536;19;9758;-79
2023/08/28 12:48:12;;;;;;;;;;;20.50;93.60;;;;;;7313609;19;9633;-79
2023/08/28 12:50:43;;;;;;;;;;;20.60;93.20;;;;;;7314479;19;10384;-79
2023/08/28 12:53:12;;;;;;;;;;;20.50;90.40;;;;;;7322734;19;9348;-79
2023/08/28 12:55:41;;;;;;;;;;;20.50;90.30;;;;;;7319989;19;9270;-78
2023/08/28 12:58:11;;;;;;;;;;;20.60;90.30;;;;;;7321761;19;9264;-79
2023/08/28 13:00:40;;;;;;;;;;;20.70;91.60;;;;;;7322960;19;9276;-79
2023/08/28 13:03:09;;;;;;;;;;;20.80;90.90;;;;;;7323845;19;9430;-79
2023/08/28 13:05:38;;;;;;;;;;;20.90;91.30;;;;;;7321811;19;9339;-79
2023/08/28 13:08:10;;;;;;;;;;;21.10;91.90;;;;;;7323207;19;9048;-79
2023/08/28 13:10:40;;;;;;;;;;;21.20;91.20;;;;;;7322212;19;9224;-79
2023/08/28 13:13:09;;;;;;;;;;;21.10;90.80;;;;;;7320339;19;9250;-79
2023/08/28 13:15:38;;;;;;;;;;;21.00;85.80;;;;;;7319225;19;9114;-79
2023/08/28 13:18:08;;;;;;;;;;;20.90;87.30;;;;;;7322059;19;9269;-79
2023/08/28 13:20:37;;;;;;;;;;;20.90;87.70;;;;;;7324442;19;9245;-79
2023/08/28 13:23:09;;;;;;;;;;;21.00;90.20;;;;;;7320194;19;9802;-79
2023/08/28 13:25:38;;;;;;;;;;;21.20;91.00;;;;;;7323122;19;9136;-79
2023/08/28 13:28:08;;;;;;;;;;;21.00;87.60;;;;;;7320287;19;9823;-79
2023/08/28 13:30:38;;;;;;;;;;;20.90;88.20;;;;;;7320766;19;9317;-79
2023/08/28 13:33:07;;;;;;;;;;;20.90;89.00;;;;;;7320053;19;9225;-79
2023/08/28 13:35:37;;;;;;;;;;;20.90;90.70;;;;;;7323825;19;9543;-79
2023/08/28 13:38:06;;;;;;;;;;;20.90;90.90;;;;;;7322778;19;9534;-79
2023/08/28 13:40:38;;;;;;;;;;;20.80;90.60;;;;;;7321898;19;9235;-79
2023/08/28 13:43:07;;;;;;;;;;;20.70;90.30;;;;;;7321867;19;9296;-79
2023/08/28 13:45:36;;;;;;;;;;;20.60;90.70;;;;;;7324598;19;9249;-79
2023/08/28 13:48:05;;;;;;;;;;;20.60;91.50;;;;;;7319239;19;9114;-79
2023/08/28 13:50:34;;;;;;;;;;;20.70;91.70;;;;;;7323163;19;9264;-80
2023/08/28 13:53:03;;;;;;;;;;;20.80;91.60;;;;;;7321978;19;9495;-79
2023/08/28 13:55:32;;;;;;;;;;;20.80;92.40;;;;;;7324524;19;10308;-79
2023/08/28 13:58:05;;;;;;;;;;;20.90;91.90;;;;;;7319230;19;9248;-79
2023/08/28 14:00:34;;;;;;;;;;;20.90;91.80;;;;;;7323003;19;9249;-80
2023/08/28 14:03:03;;;;;;;;;;;20.80;92.60;;;;;;7321467;19;9378;-80
2023/08/28 14:05:32;;;;;;;;;;;21.00;92.70;;;;;;7321637;19;9417;-77
2023/08/28 14:08:02;;;;;;;;;;;21.20;92.70;;;;;;7317411;19;8944;-79
2023/08/28 14:10:31;;;;;;;;;;;21.10;91.90;;;;;;7324255;19;9457;-79
2023/08/28 14:13:00;;;;;;;;;;;20.90;92.00;;;;;;7323842;19;9311;-79
2023/08/28 14:15:32;;;;;;;;;;;20.70;92.10;;;;;;7320387;19;9468;-78
2023/08/28 14:18:01;;;;;;;;;;;20.40;92.70;;;;;;7322649;19;9229;-77
2023/08/28 14:20:30;;;;;;;;;;;20.30;93.20;;;;;;7318835;19;9534;-77
2023/08/28 14:22:59;;;;;;;;;;;20.30;94.30;;;;;;7320425;19;10429;-77
2023/08/28 14:25:28;;;;;;;;;;;20.30;94.40;;;;;;7320124;19;10930;-78
2023/08/28 14:27:57;;;;;;;;;;;20.20;95.10;;;;;;7320150;19;9268;-78
2023/08/28 14:30:26;;;;;;;;;;;20.10;94.20;;;;;;7321032;19;9575;-78
2023/08/28 14:32:59;;;;;;;;;;;19.90;94.50;;;;;;7320816;19;9209;-78
2023/08/28 14:35:27;;;;;;;;;;;19.80;94.70;;;;;;7317363;19;10173;-78
2023/08/28 14:37:56;;;;;;;;;;;19.70;94.00;;;;;;7320865;19;9491;-79
2023/08/28 14:40:25;;;;;;;;;;;19.60;95.10;;;;;;7319936;19;9765;-80
2023/08/28 14:42:55;;;;;;;;;;;19.60;95.70;;;;;;7320912;19;9272;-78
2023/08/28 14:45:24;;;;;;;;;;;19.50;97.00;;;;;;7320512;19;9499;-78
2023/08/28 14:47:54;;;;;;;;;;;19.50;97.00;;;;;;7313687;19;9809;-78
2023/08/28 14:50:25;;;;;;;;;;;19.50;96.40;;;;;;7317179;19;9269;-79
2023/08/28 14:52:54;;;;;;;;;;;19.50;96.50;;;;;;7316837;19;9269;-81